Ana Sayfa
METAR-TAF:

METAR-TAF

Havaalanları :

Mardin Havalimanı

Mardin, Türkiye

Enlem: 37-13-58N, Boylam: 40-38-26E, yükseklik: 527 m

Güncel hava durumu gözlemi

Rapor saat 07:50 UTC de 25 dakika önce yapıldı.
Rüzgar değişken yönden 1 kt
Sıcaklık 14°C
Nem 72%
Basınç 1019 hPa
Görüş mesafesi: 7000 m
4000 ft yükseklikte parçalı bulutlu
10000 ft yükseklikte parçalı çok bulutlu

METAR: LTCR 210750Z VRB01KT 7000 SCT040 BKN100 14/09 Q1019

Saat: 11:15 (08:15 UTC)

Tahmin

Rapor saat 04:40 UTC de 3 saat ve 35 dakika önce yapıldı.
Ayın 21'si saat 06 UTC'den ayın 21'si saat 15 UTC'ye kadar geçerli Tahmin
Rüzgar değişken yönden 2 kt
Görüş mesafesi 10 km veya daha fazla
4000 ft yükseklikte parçalı bulutlu
10000 ft yükseklikte parçalı çok bulutlu

TAF: LTCR 210440Z 2106/2115 VRB02KT 9999 SCT040 BKN100

4.000'den fazla havaalanı için hava durumu gözlemleri ve tahminleri (METAR ve TAF raporları).

Kullanılabilir istasyonlar harita üzerinde sarı ve kırmızı noktalarla gösterilir.

İstasyonun adını görmek için fareyi noktanın üzerinde gezdirin.

Sonrasında hava gözlem ve tahminlerini görmek için tıklayın.

Haritayı değiştirmek için: yaklaştırmak için siyah artı işaretli yeşil düğmeye ve uzaklaştırmak için de eksi işaretli düğmeye hızla tıklayın; bitişik haritalar için yeşil okları kullanın.


METAR-TAF: